Time;durP1;ratioP1;P1;durP2;ratioP2;P2;SDS_P1;SDS_P2;PMS_P1;PMS_P2;Temp;Humidity;BMP_temperature;BMP_pressure;BME280_temperature;BME280_humidity;BME280_pressure;Samples;Min_cycle;Max_cycle;Signal;HPM_P1;HPM_P2
2022/10/11 00:00:38;;;;;;;0.70;0.70;;;14.20;98.50;13.50;96494.00;;;;5113823;28;20217;-58
2022/10/11 00:03:05;;;;;;;0.60;0.60;;;14.20;99.00;13.50;96489.00;;;;5114164;28;20354;-51
2022/10/11 00:05:32;;;;;;;1.13;1.13;;;14.20;98.40;13.60;96496.00;;;;5095730;28;20359;-51
2022/10/11 00:07:58;;;;;;;0.70;0.70;;;14.20;98.50;13.50;96501.00;;;;5113595;28;20688;-51
2022/10/11 00:10:25;;;;;;;1.97;1.77;;;14.30;98.60;13.60;96500.00;;;;5095756;28;20312;-53
2022/10/11 00:12:51;;;;;;;0.70;0.70;;;14.40;98.40;13.60;96509.00;;;;5113579;28;20602;-51
2022/10/11 00:15:21;;;;;;;0.83;0.83;;;14.30;98.40;13.60;96505.00;;;;5113612;28;20228;-52
2022/10/11 00:17:48;;;;;;;1.37;1.33;;;14.30;98.30;13.70;96515.00;;;;5113552;28;20210;-51
2022/10/11 00:20:17;;;;;;;1.90;1.63;;;14.30;98.50;13.70;96506.00;;;;5113399;28;20602;-51
2022/10/11 00:22:44;;;;;;;0.97;0.97;;;14.40;98.10;13.70;96507.00;;;;5113528;28;20645;-53
2022/10/11 00:25:12;;;;;;;1.53;1.43;;;14.40;98.10;13.80;96513.00;;;;5113390;28;20285;-51
2022/10/11 00:27:39;;;;;;;0.90;0.90;;;14.40;97.80;13.70;96509.00;;;;5113530;28;20194;-51
2022/10/11 00:30:08;;;;;;;0.97;0.97;;;14.40;97.70;13.70;96514.00;;;;5113418;28;20194;-52
2022/10/11 00:32:37;;;;;;;0.83;0.77;;;14.40;98.10;13.70;96520.00;;;;5095365;28;20225;-52
2022/10/11 00:35:05;;;;;;;1.33;1.23;;;14.40;98.00;13.70;96509.00;;;;5113422;28;20273;-52
2022/10/11 00:37:33;;;;;;;0.80;0.80;;;14.40;97.80;13.70;96495.00;;;;5095358;28;20302;-52
2022/10/11 00:40:05;;;;;;;0.80;0.80;;;14.40;97.80;13.60;96511.00;;;;5112368;28;20202;-51
2022/10/11 00:42:32;;;;;;;1.37;1.27;;;14.30;98.10;13.70;96510.00;;;;5113203;28;20273;-52
2022/10/11 00:45:49;;;;;;;0.83;0.77;;;14.30;98.70;13.80;96517.00;;;;5113017;28;20230;-51
2022/10/11 00:48:26;;;;;;;0.70;0.70;;;14.40;98.40;13.70;96511.00;;;;5095376;28;20561;-52
2022/10/11 00:50:54;;;;;;;0.63;0.63;;;14.40;98.20;13.80;96513.00;;;;5115628;28;20213;-51
2022/10/11 00:53:22;;;;;;;1.53;1.43;;;14.40;98.40;13.80;96509.00;;;;5116681;28;20194;-53
2022/10/11 00:55:54;;;;;;;1.00;1.00;;;14.40;98.20;13.70;96499.00;;;;5116564;28;20220;-51
2022/10/11 00:58:23;;;;;;;0.80;0.80;;;14.30;98.30;13.60;96513.00;;;;5116667;28;20190;-51
2022/10/11 01:00:50;;;;;;;0.70;0.70;;;14.30;98.40;13.70;96498.00;;;;5116525;28;20705;-51
2022/10/11 01:03:23;;;;;;;0.63;0.63;;;14.30;98.90;13.70;96519.00;;;;5116313;28;20229;-52
2022/10/11 01:05:50;;;;;;;0.70;0.70;;;14.30;98.80;13.50;96520.00;;;;5116474;28;20278;-51
2022/10/11 01:08:17;;;;;;;1.00;1.00;;;14.10;99.10;13.40;96526.00;;;;5116396;28;20230;-51
2022/10/11 01:10:44;;;;;;;0.70;0.70;;;14.00;99.90;13.30;96518.00;;;;5116421;28;20198;-51
2022/10/11 01:13:26;;;;;;;0.77;0.77;;;14.00;99.90;13.30;96517.00;;;;5098354;28;20606;-51
2022/10/11 01:16:05;;;;;;;1.10;1.10;;;13.90;99.90;13.40;96524.00;;;;5116282;28;20598;-51
2022/10/11 01:18:47;;;;;;;1.03;1.03;;;14.00;99.90;13.40;96511.00;;;;5116277;28;20213;-51
2022/10/11 01:21:25;;;;;;;1.07;1.00;;;14.10;99.90;13.50;96510.00;;;;5119345;28;20196;-51
2022/10/11 01:24:29;;;;;;;3.73;1.83;;;14.10;99.90;13.60;96513.00;;;;5116467;28;20226;-51
2022/10/11 01:27:29;;;;;;;1.17;1.17;;;14.20;99.90;13.60;96510.00;;;;5112187;28;20609;-51
2022/10/11 01:30:20;;;;;;;1.83;1.73;;;14.20;99.90;13.70;96527.00;;;;5116166;28;20284;-57
2022/10/11 01:32:59;;;;;;;1.63;1.53;;;14.30;99.90;13.70;96519.00;;;;5116424;28;20288;-53
2022/10/11 01:35:35;;;;;;;0.63;0.63;;;14.30;99.90;13.70;96523.00;;;;5116098;28;20198;-54
2022/10/11 01:38:10;;;;;;;1.10;1.10;;;14.30;99.90;13.70;96519.00;;;;5097945;28;20607;-53
2022/10/11 01:40:44;;;;;;;1.20;1.10;;;14.30;99.90;13.70;96516.00;;;;5115953;28;20193;-52
2022/10/11 01:43:12;;;;;;;0.93;0.93;;;14.30;99.90;13.60;96508.00;;;;5115868;28;20217;-52
2022/10/11 01:45:42;;;;;;;1.20;1.10;;;14.30;99.90;13.50;96513.00;;;;5115927;28;20236;-53
2022/10/11 01:48:11;;;;;;;1.47;1.37;;;14.20;99.90;13.50;96508.00;;;;5115790;28;20304;-52
2022/10/11 01:50:46;;;;;;;2.13;1.40;;;14.20;99.90;13.60;96511.00;;;;5115758;28;20489;-51
2022/10/11 01:53:56;;;;;;;0.50;0.50;;;14.20;99.90;13.60;96508.00;;;;5115741;28;20232;-51
2022/10/11 01:56:49;;;;;;;1.43;1.33;;;14.20;99.90;13.60;96510.00;;;;5115718;28;20200;-52
2022/10/11 01:59:31;;;;;;;1.13;1.03;;;14.30;99.90;13.60;96513.00;;;;5115523;28;20217;-51
2022/10/11 02:02:09;;;;;;;0.50;0.50;;;14.20;99.90;13.50;96506.00;;;;5115138;28;20193;-50
2022/10/11 02:04:47;;;;;;;0.70;0.70;;;14.20;99.90;13.50;96504.00;;;;5115402;28;20224;-51
2022/10/11 02:07:22;;;;;;;0.70;0.70;;;14.20;99.90;13.60;96508.00;;;;5115614;28;20305;-52
2022/10/11 02:10:00;;;;;;;0.93;0.93;;;14.20;99.90;13.60;96507.00;;;;5097282;28;20334;-51
2022/10/11 02:12:35;;;;;;;1.10;1.10;;;14.20;99.90;13.50;96507.00;;;;5115469;28;20186;-52
2022/10/11 02:15:07;;;;;;;0.73;0.73;;;14.30;99.90;13.50;96508.00;;;;5097367;28;20226;-51
2022/10/11 02:17:43;;;;;;;0.70;0.70;;;14.20;99.90;13.40;96507.00;;;;5115376;28;20249;-51
2022/10/11 02:20:16;;;;;;;0.73;0.73;;;14.10;99.90;13.30;96507.00;;;;5115301;28;20205;-51
2022/10/11 02:22:49;;;;;;;0.83;0.83;;;14.00;99.90;13.20;96513.00;;;;5115202;28;20237;-51
2022/10/11 02:25:22;;;;;;;0.50;0.50;;;13.90;99.90;13.10;96514.00;;;;5115152;28;20218;-52
2022/10/11 02:27:52;;;;;;;1.00;1.00;;;13.90;99.90;13.20;96515.00;;;;5115057;28;20226;-52
2022/10/11 02:30:19;;;;;;;0.77;0.77;;;13.80;99.90;13.20;96515.00;;;;5115148;28;20202;-51
2022/10/11 02:32:48;;;;;;;0.90;0.90;;;13.90;99.90;13.30;96508.00;;;;5115025;28;20218;-54
2022/10/11 02:35:14;;;;;;;0.80;0.80;;;13.90;99.90;13.30;96502.00;;;;5114962;28;20247;-51
2022/10/11 02:37:49;;;;;;;1.57;1.47;;;13.90;99.90;13.30;96498.00;;;;5115070;28;20221;-51
2022/10/11 02:40:22;;;;;;;1.57;1.43;;;13.90;99.90;13.20;96505.00;;;;5115069;28;20282;-53
2022/10/11 02:42:57;;;;;;;0.50;0.50;;;13.90;99.90;13.30;96516.00;;;;5115032;28;20190;-53
2022/10/11 02:45:31;;;;;;;0.80;0.80;;;13.90;99.90;13.30;96508.00;;;;5114856;28;20209;-51
2022/10/11 02:47:58;;;;;;;0.63;0.63;;;13.90;99.90;13.20;96509.00;;;;5115037;28;20568;-51
2022/10/11 02:50:26;;;;;;;3.33;1.57;;;13.90;99.90;13.10;96504.00;;;;5114768;28;20300;-51
2022/10/11 02:52:53;;;;;;;1.10;1.10;;;13.80;99.90;13.20;96509.00;;;;5113852;28;20193;-51
2022/10/11 02:55:19;;;;;;;0.63;0.63;;;13.80;99.90;13.20;96508.00;;;;5114666;28;20364;-51
2022/10/11 02:57:46;;;;;;;0.53;0.53;;;13.80;99.90;13.10;96510.00;;;;5114645;28;20285;-52
2022/10/11 03:00:14;;;;;;;0.60;0.60;;;13.80;99.90;13.10;96513.00;;;;5114698;28;20204;-51
2022/10/11 03:02:40;;;;;;;2.00;1.53;;;13.80;99.90;13.10;96510.00;;;;5096672;28;20198;-52
2022/10/11 03:05:08;;;;;;;0.63;0.63;;;13.70;99.90;13.10;96513.00;;;;5114680;28;20698;-51
2022/10/11 03:07:34;;;;;;;0.83;0.83;;;13.70;99.90;13.10;96516.00;;;;5114439;28;20328;-51
2022/10/11 03:10:01;;;;;;;0.80;0.80;;;13.70;99.90;13.10;96518.00;;;;5114576;28;20286;-52
2022/10/11 03:12:27;;;;;;;1.17;1.17;;;13.70;99.90;13.00;96519.00;;;;5113522;28;20244;-52
2022/10/11 03:14:54;;;;;;;0.60;0.60;;;13.70;99.90;13.10;96527.00;;;;5096641;28;20355;-52
2022/10/11 03:17:20;;;;;;;1.20;1.20;;;13.80;99.90;13.10;96528.00;;;;5114343;28;20301;-52
2022/10/11 03:19:47;;;;;;;1.33;1.33;;;13.70;99.90;13.00;96535.00;;;;5114395;28;20178;-52
2022/10/11 03:22:16;;;;;;;0.70;0.70;;;13.70;99.90;13.00;96527.00;;;;5096655;28;20258;-52
2022/10/11 03:24:45;;;;;;;0.57;0.57;;;13.70;99.90;12.90;96525.00;;;;5096222;28;20229;-52
2022/10/11 03:27:14;;;;;;;1.00;1.00;;;13.60;99.90;13.00;96530.00;;;;5114328;28;20231;-54
2022/10/11 03:29:40;;;;;;;2.57;0.80;;;13.70;99.90;13.00;96539.00;;;;5114323;28;20304;-52
2022/10/11 03:32:06;;;;;;;0.70;0.70;;;13.70;99.90;13.10;96532.00;;;;5096697;28;20198;-52
2022/10/11 03:34:33;;;;;;;0.90;0.90;;;13.70;99.90;13.10;96540.00;;;;5114113;28;20676;-57
2022/10/11 03:36:59;;;;;;;0.80;0.80;;;13.80;99.90;13.10;96544.00;;;;5114106;28;20284;-54
2022/10/11 03:39:26;;;;;;;1.00;1.00;;;13.80;99.90;13.20;96536.00;;;;5113992;28;20250;-52
2022/10/11 03:41:53;;;;;;;1.53;1.43;;;13.80;99.90;13.20;96542.00;;;;5096080;28;20193;-52
2022/10/11 03:44:19;;;;;;;1.53;1.53;;;13.90;99.90;13.20;96542.00;;;;5113834;28;20278;-52
2022/10/11 03:46:48;;;;;;;0.87;0.87;;;13.90;99.90;13.20;96549.00;;;;5114179;28;20288;-52
2022/10/11 03:49:14;;;;;;;1.23;1.23;;;13.90;99.90;13.20;96540.00;;;;5114231;28;20224;-52
2022/10/11 03:51:41;;;;;;;0.70;0.70;;;13.90;99.90;13.20;96550.00;;;;5113849;28;20214;-52
2022/10/11 03:54:09;;;;;;;2.00;1.43;;;13.90;99.90;13.20;96552.00;;;;5114030;28;20202;-52
2022/10/11 03:56:36;;;;;;;2.30;1.80;;;13.90;99.90;13.20;96550.00;;;;5113775;28;20286;-52
2022/10/11 03:59:03;;;;;;;2.00;1.90;;;13.90;99.90;13.20;96548.00;;;;5095956;28;20667;-52
2022/10/11 04:01:30;;;;;;;3.80;3.50;;;13.90;99.90;13.20;96549.00;;;;5113791;28;20190;-52
2022/10/11 04:03:56;;;;;;;5.53;2.70;;;13.90;99.90;13.30;96553.00;;;;5113581;28;20205;-52
2022/10/11 04:06:23;;;;;;;1.83;1.73;;;13.90;99.90;13.20;96551.00;;;;5113722;28;20206;-52
2022/10/11 04:08:49;;;;;;;1.80;1.70;;;13.90;99.90;13.30;96551.00;;;;5113642;28;20252;-52
2022/10/11 04:11:16;;;;;;;3.47;2.30;;;13.90;99.90;13.30;96551.00;;;;5113534;28;20198;-52
2022/10/11 04:13:43;;;;;;;1.60;1.60;;;13.90;99.90;13.20;96550.00;;;;5095606;28;20222;-54
2022/10/11 04:16:09;;;;;;;1.70;1.60;;;13.90;99.90;13.20;96549.00;;;;5113592;28;20239;-51
2022/10/11 04:18:36;;;;;;;2.23;2.13;;;13.90;99.90;13.20;96559.00;;;;5113713;28;20190;-52
2022/10/11 04:21:03;;;;;;;4.03;2.90;;;13.90;99.90;13.20;96559.00;;;;5113668;28;20287;-52
2022/10/11 04:23:30;;;;;;;2.67;2.07;;;13.90;99.90;13.20;96557.00;;;;5113938;28;20258;-50
2022/10/11 04:25:56;;;;;;;1.77;1.67;;;13.90;99.90;13.20;96560.00;;;;5116850;28;20226;-50
2022/10/11 04:28:22;;;;;;;3.70;2.60;;;13.90;99.90;13.10;96556.00;;;;5117138;28;20243;-52
2022/10/11 04:30:50;;;;;;;2.07;1.97;;;13.80;99.90;13.10;96558.00;;;;5098960;28;20229;-52
2022/10/11 04:33:17;;;;;;;1.53;1.43;;;13.80;99.90;13.10;96561.00;;;;5117103;28;20201;-51
2022/10/11 04:35:43;;;;;;;1.17;1.17;;;13.80;99.90;13.10;96565.00;;;;5116819;28;20212;-51
2022/10/11 04:38:12;;;;;;;0.87;0.87;;;13.80;99.90;13.10;96562.00;;;;5116765;28;20209;-51
2022/10/11 04:40:38;;;;;;;1.00;1.00;;;13.80;99.90;13.20;96560.00;;;;5116717;28;20328;-51
2022/10/11 04:43:05;;;;;;;1.60;1.50;;;13.90;99.90;13.30;96571.00;;;;5098663;28;20289;-51
2022/10/11 04:45:32;;;;;;;1.83;1.63;;;13.90;99.90;13.20;96567.00;;;;5116692;28;20226;-51
2022/10/11 04:47:59;;;;;;;2.90;1.50;;;13.80;99.90;13.10;96564.00;;;;5116798;28;20218;-51
2022/10/11 04:50:26;;;;;;;2.10;2.00;;;13.80;99.90;13.00;96567.00;;;;5116825;28;20209;-51
2022/10/11 04:52:52;;;;;;;1.10;1.10;;;13.70;99.90;12.90;96570.00;;;;5116501;28;20282;-51
2022/10/11 04:55:18;;;;;;;1.10;1.10;;;13.70;99.90;13.00;96575.00;;;;5116818;28;20193;-52
2022/10/11 04:57:45;;;;;;;1.37;1.27;;;13.70;99.90;13.00;96571.00;;;;5116616;28;20190;-52
2022/10/11 05:00:15;;;;;;;1.73;1.63;;;13.70;99.90;13.10;96575.00;;;;5098673;28;20217;-52
2022/10/11 05:02:41;;;;;;;1.97;1.87;;;13.70;99.90;13.10;96579.00;;;;5116529;28;20198;-52
2022/10/11 05:05:09;;;;;;;1.63;1.50;;;13.70;99.90;13.10;96574.00;;;;5116309;28;20629;-52
2022/10/11 05:07:36;;;;;;;1.20;1.20;;;13.80;99.90;13.20;96580.00;;;;5116419;28;20751;-52
2022/10/11 05:10:03;;;;;;;1.10;1.10;;;13.80;99.90;13.20;96584.00;;;;5116508;28;20217;-52
2022/10/11 05:12:29;;;;;;;1.23;1.13;;;13.80;99.90;13.20;96579.00;;;;5116337;28;20194;-52
2022/10/11 05:14:58;;;;;;;1.53;1.50;;;13.90;99.90;13.20;96579.00;;;;5116362;28;20487;-52
2022/10/11 05:17:26;;;;;;;14.33;2.37;;;13.90;99.90;13.20;96581.00;;;;5116205;28;20202;-54
2022/10/11 05:19:53;;;;;;;2.47;2.37;;;13.90;99.90;13.20;96586.00;;;;5116270;28;20204;-52
2022/10/11 05:22:20;;;;;;;3.60;2.73;;;13.90;99.90;13.20;96592.00;;;;5116186;28;20218;-52
2022/10/11 05:24:46;;;;;;;1.37;1.37;;;13.90;99.90;13.20;96583.00;;;;5116158;28;20224;-52
2022/10/11 05:27:13;;;;;;;3.17;2.97;;;13.80;99.90;13.10;96583.00;;;;5115894;28;20621;-53
2022/10/11 05:29:41;;;;;;;7.10;1.93;;;13.80;99.90;13.10;96586.00;;;;5116110;28;20310;-52
2022/10/11 05:32:07;;;;;;;1.47;1.47;;;13.80;99.90;13.10;96592.00;;;;5116122;28;20233;-52
2022/10/11 05:34:36;;;;;;;3.63;3.27;;;13.80;99.90;13.10;96598.00;;;;5116024;28;20220;-54
2022/10/11 05:37:03;;;;;;;8.43;3.23;;;13.70;99.90;13.00;96595.00;;;;5115245;28;20293;-52
2022/10/11 05:39:30;;;;;;;2.03;1.93;;;13.80;99.90;13.10;96605.00;;;;5115903;28;20622;-53
2022/10/11 05:41:56;;;;;;;4.03;3.70;;;13.70;99.90;13.10;96601.00;;;;5116058;28;20559;-52
2022/10/11 05:44:23;;;;;;;3.40;3.10;;;13.70;99.90;13.00;96606.00;;;;5115718;28;20287;-52
2022/10/11 05:46:49;;;;;;;1.60;1.50;;;13.70;99.80;13.00;96599.00;;;;5097908;28;20194;-52
2022/10/11 05:49:16;;;;;;;1.40;1.40;;;13.70;99.70;13.00;96608.00;;;;5115762;28;20232;-52
2022/10/11 05:51:42;;;;;;;7.53;4.17;;;13.70;99.70;13.10;96607.00;;;;5115834;28;20209;-52
2022/10/11 05:54:11;;;;;;;3.60;2.27;;;13.70;99.60;13.10;96609.00;;;;5115756;28;20281;-52
2022/10/11 05:56:38;;;;;;;2.30;1.80;;;13.80;99.50;13.10;96611.00;;;;5115787;28;20209;-52
2022/10/11 05:59:05;;;;;;;2.00;1.90;;;13.80;99.50;13.10;96617.00;;;;5120563;28;20194;-53
2022/10/11 06:01:31;;;;;;;1.47;1.47;;;13.80;99.40;13.20;96618.00;;;;5115728;28;20254;-52
2022/10/11 06:03:58;;;;;;;8.67;3.60;;;13.80;99.50;13.20;96616.00;;;;5115651;28;20190;-52
2022/10/11 06:06:26;;;;;;;2.33;2.03;;;13.90;99.70;13.20;96615.00;;;;5115518;28;20249;-57
2022/10/11 06:08:53;;;;;;;2.37;2.27;;;13.90;99.20;13.10;96632.00;;;;5115627;28;20278;-54
2022/10/11 06:11:24;;;;;;;3.33;2.90;;;13.90;99.00;13.20;96626.00;;;;5115634;28;20373;-52
2022/10/11 06:13:56;;;;;;;1.50;1.43;;;13.90;98.90;13.30;96636.00;;;;5115611;28;20232;-52
2022/10/11 06:16:22;;;;;;;3.13;1.67;;;13.90;98.70;13.30;96634.00;;;;5115365;28;20197;-52
2022/10/11 06:18:51;;;;;;;2.67;2.40;;;13.90;98.40;13.20;96629.00;;;;5115328;28;20231;-54
2022/10/11 06:21:18;;;;;;;2.53;2.33;;;13.90;98.30;13.20;96634.00;;;;5115398;28;20198;-52
2022/10/11 06:23:49;;;;;;;2.70;2.57;;;13.90;98.40;13.30;96625.00;;;;5115244;28;20249;-52
2022/10/11 06:26:16;;;;;;;2.87;2.67;;;13.90;99.40;13.20;96625.00;;;;5115199;28;20217;-52
2022/10/11 06:28:42;;;;;;;5.00;2.73;;;13.90;98.20;13.30;96642.00;;;;5115224;28;20213;-52
2022/10/11 06:31:12;;;;;;;4.10;2.57;;;13.90;98.10;13.30;96638.00;;;;5115120;28;20528;-52
2022/10/11 06:33:39;;;;;;;2.80;2.60;;;13.90;98.20;13.30;96646.00;;;;5097057;28;20206;-52
2022/10/11 06:36:09;;;;;;;3.80;2.50;;;14.00;97.80;13.30;96653.00;;;;5115073;28;20223;-52
2022/10/11 06:38:36;;;;;;;2.90;2.53;;;13.90;98.00;13.30;96656.00;;;;5115077;28;20231;-52
2022/10/11 06:41:10;;;;;;;2.57;2.37;;;13.90;98.10;13.30;96651.00;;;;5115016;28;20273;-52
2022/10/11 06:43:38;;;;;;;2.30;2.17;;;14.00;98.20;13.30;96652.00;;;;5114919;28;20193;-52
2022/10/11 06:46:05;;;;;;;1.87;1.70;;;13.90;98.40;13.30;96649.00;;;;5114746;28;20226;-52
2022/10/11 06:48:32;;;;;;;2.90;2.70;;;14.00;98.10;13.30;96651.00;;;;5114892;28;20194;-52
2022/10/11 06:51:01;;;;;;;3.27;3.00;;;14.00;98.20;13.20;96654.00;;;;5114758;28;20229;-52
2022/10/11 06:53:27;;;;;;;3.57;3.27;;;13.90;98.10;13.20;96654.00;;;;5114779;28;20204;-52
2022/10/11 06:56:01;;;;;;;3.97;2.70;;;13.90;98.50;13.30;96661.00;;;;5114699;28;20645;-57
2022/10/11 06:58:29;;;;;;;3.37;2.63;;;13.90;98.20;13.30;96663.00;;;;5114767;28;20696;-52
2022/10/11 07:01:00;;;;;;;4.37;2.77;;;13.90;98.10;13.30;96658.00;;;;5114722;28;20198;-52
2022/10/11 07:03:29;;;;;;;2.07;1.97;;;13.90;98.10;13.30;96671.00;;;;5114888;28;20213;-52
2022/10/11 07:06:00;;;;;;;2.40;2.20;;;13.90;98.10;13.30;96675.00;;;;5096737;28;20239;-57
2022/10/11 07:08:27;;;;;;;3.43;2.03;;;14.00;97.90;13.30;96669.00;;;;5114588;28;20344;-52
2022/10/11 07:10:59;;;;;;;2.97;2.07;;;14.00;98.00;13.40;96675.00;;;;5114521;28;20276;-52
2022/10/11 07:13:26;;;;;;;2.70;2.50;;;14.00;97.70;13.30;96666.00;;;;5114549;28;20316;-52
2022/10/11 07:15:53;;;;;;;15.80;2.60;;;14.00;97.50;13.30;96684.00;;;;5114496;28;20273;-52
2022/10/11 07:18:19;;;;;;;2.03;1.93;;;14.00;97.60;13.40;96681.00;;;;5114453;28;20222;-51
2022/10/11 07:20:46;;;;;;;4.40;4.00;;;14.00;97.50;13.30;96693.00;;;;5096614;28;20202;-54
2022/10/11 07:23:13;;;;;;;6.30;4.17;;;14.00;96.90;13.30;96689.00;;;;5114400;28;20218;-52
2022/10/11 07:25:39;;;;;;;3.10;2.90;;;14.00;97.60;13.30;96694.00;;;;5114232;28;20312;-52
2022/10/11 07:28:08;;;;;;;1.97;1.87;;;14.00;97.20;13.30;96700.00;;;;5114250;28;20672;-52
2022/10/11 07:30:38;;;;;;;2.57;2.37;;;14.00;97.20;13.40;96689.00;;;;5096557;28;20614;-52
2022/10/11 07:33:05;;;;;;;2.77;1.70;;;14.00;97.40;13.30;96703.00;;;;5114200;28;20202;-54
2022/10/11 07:35:34;;;;;;;3.70;2.93;;;14.00;96.90;13.30;96703.00;;;;5114214;28;20296;-53
2022/10/11 07:38:01;;;;;;;3.23;3.03;;;13.90;97.00;13.20;96698.00;;;;5114175;28;20214;-50
2022/10/11 07:40:30;;;;;;;2.57;2.47;;;13.90;97.60;13.20;96697.00;;;;5114170;28;20206;-51
2022/10/11 07:42:57;;;;;;;2.97;2.67;;;13.90;97.80;13.30;96705.00;;;;5113963;28;20229;-51
2022/10/11 07:45:24;;;;;;;3.43;3.13;;;14.00;98.10;13.30;96702.00;;;;5113877;28;20218;-53
2022/10/11 07:47:54;;;;;;;4.43;3.83;;;14.00;97.70;13.30;96703.00;;;;5096105;28;20522;-52
2022/10/11 07:50:21;;;;;;;3.43;3.23;;;14.00;98.70;13.30;96704.00;;;;5113818;28;20290;-55
2022/10/11 07:52:50;;;;;;;1.97;1.87;;;14.00;97.70;13.40;96701.00;;;;5113873;28;20194;-53
2022/10/11 07:55:17;;;;;;;3.20;3.00;;;14.00;97.00;13.30;96703.00;;;;5113848;28;20209;-52
2022/10/11 07:57:46;;;;;;;6.53;2.00;;;14.00;96.80;13.40;96699.00;;;;5113834;28;20198;-51
2022/10/11 08:00:16;;;;;;;2.13;2.03;;;14.00;96.80;13.40;96703.00;;;;5120312;28;20221;-52
2022/10/11 08:02:42;;;;;;;4.63;2.40;;;14.10;97.10;13.50;96705.00;;;;5120628;28;20198;-51
2022/10/11 08:05:11;;;;;;;2.60;2.47;;;14.10;96.70;13.60;96701.00;;;;5120490;28;20690;-51
2022/10/11 08:07:37;;;;;;;3.33;2.93;;;14.20;96.50;13.60;96696.00;;;;5120618;28;20197;-52
2022/10/11 08:10:06;;;;;;;2.30;2.13;;;14.20;95.90;13.70;96703.00;;;;5120509;28;20190;-51
2022/10/11 08:12:32;;;;;;;3.60;3.33;;;14.30;95.60;13.70;96699.00;;;;5120438;28;20190;-52
2022/10/11 08:15:00;;;;;;;2.50;2.30;;;14.30;95.60;13.70;96707.00;;;;5120511;28;20297;-52
2022/10/11 08:17:29;;;;;;;3.53;3.23;;;14.30;95.80;13.80;96691.00;;;;5120345;28;20669;-51
2022/10/11 08:19:56;;;;;;;4.60;4.20;;;14.30;95.70;13.80;96698.00;;;;5120310;28;20214;-54
2022/10/11 08:22:23;;;;;;;3.17;2.97;;;14.40;96.10;13.90;96701.00;;;;5120141;28;20282;-51
2022/10/11 08:24:49;;;;;;;4.20;3.30;;;14.50;96.60;14.00;96706.00;;;;5102318;28;20232;-51
2022/10/11 08:27:18;;;;;;;2.13;2.03;;;14.60;96.30;14.00;96709.00;;;;5120151;28;20194;-51
2022/10/11 08:29:44;;;;;;;2.77;2.57;;;14.60;98.80;14.10;96713.00;;;;5120149;28;20795;-51
2022/10/11 08:32:11;;;;;;;3.23;2.87;;;14.70;95.30;14.10;96710.00;;;;5120115;28;20284;-56
2022/10/11 08:34:38;;;;;;;2.23;2.13;;;14.70;94.50;14.10;96708.00;;;;5101976;28;20556;-51
2022/10/11 08:37:04;;;;;;;4.87;3.60;;;14.70;94.50;14.10;96709.00;;;;5120081;28;20190;-51
2022/10/11 08:39:31;;;;;;;3.73;3.50;;;14.70;94.20;14.00;96709.00;;;;5120024;28;20202;-51
2022/10/11 08:42:04;;;;;;;1.83;1.73;;;14.60;99.90;14.10;96715.00;;;;5120083;28;20206;-52
2022/10/11 08:44:41;;;;;;;2.70;2.47;;;14.70;99.90;14.00;96716.00;;;;5119941;28;20198;-51
2022/10/11 08:47:19;;;;;;;2.10;1.90;;;14.70;99.90;14.00;96710.00;;;;5120042;28;20254;-52
2022/10/11 08:49:46;;;;;;;2.60;2.40;;;14.60;99.90;14.00;96716.00;;;;5119981;28;20232;-52
2022/10/11 08:52:30;;;;;;;3.50;3.00;;;14.70;99.90;14.00;96717.00;;;;5119838;28;20225;-51
2022/10/11 08:55:02;;;;;;;3.63;2.17;;;14.70;99.90;14.00;96721.00;;;;5119903;28;20197;-51
2022/10/11 08:57:33;;;;;;;3.40;3.10;;;14.70;99.90;14.10;96721.00;;;;5119853;28;20225;-51
2022/10/11 09:00:05;;;;;;;3.93;3.50;;;14.70;99.90;14.00;96725.00;;;;5118930;28;20537;-51
2022/10/11 09:02:46;;;;;;;4.80;2.63;;;14.70;99.90;14.10;96728.00;;;;5119900;28;20224;-52
2022/10/11 09:05:17;;;;;;;3.63;2.10;;;14.70;99.90;14.00;96728.00;;;;5119854;28;20679;-51
2022/10/11 09:07:54;;;;;;;3.23;2.43;;;;;14.00;96729.00;;;;5119008;28;20314;-51
2022/10/11 09:10:55;;;;;;;1.87;1.77;;;;;13.90;96731.00;;;;5117381;28;20193;-51
2022/10/11 09:14:03;;;;;;;2.77;2.60;;;14.50;92.50;13.90;96735.00;;;;5116530;28;20210;-51
2022/10/11 09:16:46;;;;;;;2.33;2.23;;;14.50;93.20;14.00;96729.00;;;;5115862;28;20521;-52
2022/10/11 09:19:50;;;;;;;3.37;2.40;;;14.60;93.20;14.00;96735.00;;;;5098416;28;20201;-51
2022/10/11 09:22:28;;;;;;;2.47;2.27;;;14.60;93.20;14.10;96734.00;;;;5116210;28;20206;-51
2022/10/11 09:25:16;;;;;;;3.43;2.73;;;14.70;93.00;14.00;96740.00;;;;5116106;28;20218;-52
2022/10/11 09:27:52;;;;;;;2.43;2.13;;;14.70;93.20;14.00;96736.00;;;;5116186;28;20194;-51
2022/10/11 09:30:20;;;;;;;2.13;1.93;;;14.70;92.90;14.00;96743.00;;;;5116105;28;20657;-52
2022/10/11 09:32:59;;;;;;;9.13;4.67;;;14.60;93.40;14.00;96740.00;;;;5116079;28;20246;-52
2022/10/11 09:35:32;;;;;;;3.90;2.70;;;14.60;92.60;14.00;96730.00;;;;5115994;28;20198;-52
2022/10/11 09:38:10;;;;;;;4.17;3.37;;;14.60;92.60;13.90;96733.00;;;;5115906;28;20537;-54
2022/10/11 09:40:53;;;;;;;4.03;3.73;;;14.60;92.70;13.90;96734.00;;;;5115964;28;20285;-51
2022/10/11 09:43:20;;;;;;;3.13;1.73;;;14.60;93.00;14.00;96731.00;;;;5115932;28;20304;-51
2022/10/11 09:45:46;;;;;;;2.57;2.40;;;14.60;92.80;14.00;96732.00;;;;5097919;28;20222;-51
2022/10/11 09:48:20;;;;;;;2.60;2.47;;;14.50;92.40;13.90;96726.00;;;;5097859;28;20205;-51
2022/10/11 09:50:51;;;;;;;2.43;1.93;;;14.50;92.70;13.90;96711.00;;;;5116018;28;20284;-52
2022/10/11 09:53:18;;;;;;;4.07;3.67;;;14.50;92.60;13.90;96731.00;;;;5115884;28;20277;-51
2022/10/11 09:55:52;;;;;;;3.30;3.10;;;14.60;92.70;13.90;96740.00;;;;5115706;28;20233;-51
2022/10/11 09:58:32;;;;;;;2.13;2.03;;;14.60;92.80;13.90;96728.00;;;;5115874;28;20202;-52
2022/10/11 10:01:02;;;;;;;2.73;2.53;;;14.50;93.00;14.00;96739.00;;;;5115827;28;20306;-51
2022/10/11 10:03:31;;;;;;;2.40;2.30;;;14.60;93.10;14.00;96739.00;;;;5115447;28;20285;-51
2022/10/11 10:06:21;;;;;;;3.67;2.67;;;14.60;92.60;14.00;96740.00;;;;5115450;28;20222;-51
2022/10/11 10:08:47;;;;;;;3.07;2.87;;;14.60;92.50;14.10;96751.00;;;;5115669;28;20198;-51
2022/10/11 10:11:15;;;;;;;2.30;2.20;;;14.60;92.70;14.10;96742.00;;;;5115512;28;20208;-54
2022/10/11 10:13:49;;;;;;;3.10;2.90;;;14.70;92.70;14.10;96741.00;;;;5097499;28;20198;-51
2022/10/11 10:16:23;;;;;;;1.70;1.60;;;14.70;92.30;14.20;96742.00;;;;5115360;28;20220;-51
2022/10/11 10:18:54;;;;;;;2.10;2.00;;;14.70;91.80;14.20;96743.00;;;;5115494;28;20316;-51
2022/10/11 10:21:29;;;;;;;2.40;2.27;;;14.70;91.50;14.20;96746.00;;;;5115052;28;20759;-52
2022/10/11 10:24:01;;;;;;;2.93;2.23;;;14.80;91.70;14.20;96742.00;;;;5115361;28;20225;-51
2022/10/11 10:26:29;;;;;;;1.87;1.73;;;14.80;90.40;14.20;96745.00;;;;5115328;28;20221;-52
2022/10/11 10:29:04;;;;;;;2.40;2.20;;;14.70;90.50;14.20;96741.00;;;;5115344;28;20244;-54
2022/10/11 10:31:37;;;;;;;1.80;1.70;;;14.80;89.80;14.20;96745.00;;;;5115214;28;20194;-51
2022/10/11 10:34:13;;;;;;;1.70;1.63;;;14.80;89.40;14.20;96747.00;;;;5115205;28;20182;-53
2022/10/11 10:36:48;;;;;;;2.80;2.60;;;14.80;89.70;14.30;96747.00;;;;5097387;28;20209;-54
2022/10/11 10:39:24;;;;;;;2.10;2.00;;;14.80;90.10;14.20;96741.00;;;;5115269;28;20636;-52
2022/10/11 10:41:50;;;;;;;2.03;1.93;;;14.80;89.70;14.20;96741.00;;;;5115030;28;20300;-51
2022/10/11 10:44:19;;;;;;;16.03;2.87;;;14.80;89.50;14.20;96739.00;;;;5115043;28;20640;-51
2022/10/11 10:47:01;;;;;;;1.90;1.80;;;14.80;89.90;14.20;96716.00;;;;5114938;28;20293;-51
2022/10/11 10:49:37;;;;;;;4.97;2.47;;;14.80;90.60;14.20;96731.00;;;;5114997;28;20190;-51
2022/10/11 10:52:40;;;;;;;2.80;2.50;;;14.80;90.10;14.30;96743.00;;;;5114987;28;20567;-51
2022/10/11 10:55:21;;;;;;;2.43;2.33;;;14.90;91.30;14.40;96747.00;;;;5114929;28;20186;-53
2022/10/11 10:58:23;;;;;;;2.53;2.40;;;15.00;90.60;14.30;96744.00;;;;5096942;28;20198;-51
2022/10/11 11:00:55;;;;;;;1.73;1.67;;;15.00;89.90;14.30;96736.00;;;;5112801;28;20206;-52
2022/10/11 11:03:28;;;;;;;2.03;1.93;;;14.90;89.90;14.40;96736.00;;;;5114795;28;20194;-51
2022/10/11 11:06:03;;;;;;;1.53;1.47;;;15.00;89.80;14.40;96732.00;;;;5114677;28;20218;-51
2022/10/11 11:08:56;;;;;;;1.80;1.70;;;15.00;89.90;14.40;96736.00;;;;5114638;28;20513;-51
2022/10/11 11:11:44;;;;;;;2.97;2.73;;;15.00;90.00;14.40;96726.00;;;;5114534;28;20296;-51